Time;durP1;ratioP1;P1;durP2;ratioP2;P2;SDS_P1;SDS_P2;PMS_P1;PMS_P2;Temp;Humidity;BMP_temperature;BMP_pressure;BME280_temperature;BME280_humidity;BME280_pressure;Samples;Min_cycle;Max_cycle;Signal;HPM_P1;HPM_P2
2022/12/14 00:00:08;;;;;;;15.10;11.10;;;0.30;99.90;;;;;;5032414;28;20291;-78
2022/12/14 00:02:35;;;;;;;17.30;11.85;;;0.30;99.90;;;;;;5030479;28;20229;-78
2022/12/14 00:05:02;;;;;;;17.27;11.55;;;0.30;99.90;;;;;;5029625;28;20225;-78
2022/12/14 00:07:30;;;;;;;14.23;11.40;;;0.20;99.90;;;;;;5032484;28;20637;-78
2022/12/14 00:09:58;;;;;;;14.35;11.43;;;0.20;99.90;;;;;;5032242;28;20225;-78
2022/12/14 00:12:25;;;;;;;19.02;12.13;;;0.20;99.90;;;;;;5037779;28;20659;-78
2022/12/14 00:14:56;;;;;;;18.83;13.00;;;0.20;99.90;;;;;;5035101;28;20229;-76
2022/12/14 00:17:32;;;;;;;19.92;13.30;;;0.20;99.90;;;;;;5034675;28;20704;-77
2022/12/14 00:19:59;;;;;;;18.85;13.35;;;0.20;99.90;;;;;;5034082;28;20239;-77
2022/12/14 00:22:26;;;;;;;21.75;13.75;;;0.20;99.90;;;;;;5034994;28;20224;-79
2022/12/14 00:24:54;;;;;;;19.52;14.07;;;0.20;99.90;;;;;;5035648;28;20217;-78
2022/12/14 00:27:22;;;;;;;19.08;14.27;;;0.20;99.90;;;;;;5034694;28;20704;-77
2022/12/14 00:29:49;;;;;;;14.82;13.23;;;0.30;99.90;;;;;;5035136;28;20356;-79
2022/12/14 00:32:16;;;;;;;16.27;12.38;;;0.30;99.90;;;;;;5034767;28;20315;-78
2022/12/14 00:34:43;;;;;;;21.63;13.95;;;0.20;99.90;;;;;;5034895;28;20225;-79
2022/12/14 00:37:12;;;;;;;16.33;12.25;;;0.20;99.90;;;;;;5035579;28;20275;-78
2022/12/14 00:39:42;;;;;;;18.15;13.27;;;0.30;99.90;;;;;;5025475;28;20229;-77
2022/12/14 00:42:13;;;;;;;17.98;11.55;;;0.30;99.90;;;;;;5031492;28;20676;-79
2022/12/14 00:44:40;;;;;;;16.30;12.45;;;0.30;99.90;;;;;;5037002;28;20222;-77
2022/12/14 00:47:08;;;;;;;17.75;12.55;;;0.30;99.90;;;;;;5038828;28;20222;-78
2022/12/14 00:49:35;;;;;;;16.88;12.57;;;0.30;99.90;;;;;;5038518;28;20239;-79
2022/12/14 00:52:03;;;;;;;15.60;12.05;;;0.30;99.90;;;;;;5023909;28;20228;-77
2022/12/14 00:54:30;;;;;;;18.88;13.00;;;0.20;99.90;;;;;;5029651;28;20709;-79
2022/12/14 00:56:57;;;;;;;18.98;14.07;;;0.20;99.90;;;;;;5047749;28;20305;-79
2022/12/14 00:59:25;;;;;;;15.50;12.52;;;0.20;99.90;;;;;;5024182;28;20666;-77
2022/12/14 01:01:52;;;;;;;18.48;12.35;;;0.20;99.90;;;;;;5034214;28;20316;-78
2022/12/14 01:04:21;;;;;;;19.40;13.88;;;0.20;99.90;;;;;;5033858;28;20233;-78
2022/12/14 01:06:49;;;;;;;17.75;13.27;;;0.20;99.90;;;;;;5034394;28;20221;-78
2022/12/14 01:09:19;;;;;;;18.75;13.48;;;0.20;99.90;;;;;;5025451;28;20304;-78
2022/12/14 01:11:46;;;;;;;15.95;13.70;;;0.10;99.90;;;;;;5026546;28;20228;-77
2022/12/14 01:14:15;;;;;;;14.50;11.45;;;0.20;99.90;;;;;;5034662;28;20286;-78
2022/12/14 01:16:44;;;;;;;21.27;14.52;;;0.20;99.90;;;;;;5026366;28;20213;-78
2022/12/14 01:19:12;;;;;;;16.58;13.10;;;0.20;99.90;;;;;;5033580;28;20289;-78
2022/12/14 01:21:39;;;;;;;18.55;14.73;;;0.20;99.90;;;;;;5034614;28;20221;-80
2022/12/14 01:24:07;;;;;;;16.90;12.75;;;0.20;99.90;;;;;;5034829;28;20721;-79
2022/12/14 01:26:38;;;;;;;18.08;13.75;;;0.20;99.90;;;;;;5034575;28;20233;-79
2022/12/14 01:29:06;;;;;;;20.80;14.18;;;0.20;99.90;;;;;;5033791;28;20287;-80
2022/12/14 01:31:35;;;;;;;18.48;13.75;;;0.10;99.90;;;;;;5033736;28;20283;-79
2022/12/14 01:34:03;;;;;;;25.88;16.23;;;0.10;99.90;;;;;;5033948;28;20233;-79
2022/12/14 01:36:33;;;;;;;25.98;15.63;;;0.10;99.90;;;;;;5033824;28;20733;-79
2022/12/14 01:39:02;;;;;;;20.25;14.93;;;0.00;99.90;;;;;;5032144;28;20302;-79
2022/12/14 01:41:31;;;;;;;21.73;15.57;;;0.00;99.90;;;;;;5033364;28;20300;-79
2022/12/14 01:43:59;;;;;;;21.80;15.63;;;0.00;99.90;;;;;;5034153;28;20671;-79
2022/12/14 01:46:31;;;;;;;19.70;14.57;;;0.00;99.90;;;;;;5028072;28;20225;-78
2022/12/14 01:49:07;;;;;;;17.65;13.70;;;-0.10;99.90;;;;;;5033976;28;20295;-78
2022/12/14 01:51:36;;;;;;;19.40;14.82;;;-0.20;99.90;;;;;;5033862;28;20221;-78
2022/12/14 01:54:06;;;;;;;21.92;15.35;;;-0.20;99.90;;;;;;5033860;28;20225;-78
2022/12/14 01:56:35;;;;;;;19.77;14.98;;;-0.30;99.90;;;;;;5030619;28;20213;-77
2022/12/14 01:59:07;;;;;;;21.80;14.98;;;-0.30;99.90;;;;;;5031901;28;20308;-77
2022/12/14 02:01:34;;;;;;;25.23;15.90;;;-0.30;99.90;;;;;;5032065;28;20641;-79
2022/12/14 02:04:04;;;;;;;18.75;14.32;;;-0.30;99.90;;;;;;5033192;28;20602;-78
2022/12/14 02:06:35;;;;;;;19.08;15.27;;;-0.30;99.90;;;;;;5031949;28;20676;-79
2022/12/14 02:09:04;;;;;;;21.30;15.25;;;-0.30;99.90;;;;;;5031435;28;20299;-79
2022/12/14 02:11:39;;;;;;;22.90;15.77;;;-0.40;99.90;;;;;;5025209;28;20220;-79
2022/12/14 02:14:06;;;;;;;16.77;13.05;;;-0.30;99.90;;;;;;5034672;28;20221;-78
2022/12/14 02:16:36;;;;;;;23.63;15.25;;;-0.40;99.90;;;;;;5032656;28;20225;-78
2022/12/14 02:19:05;;;;;;;16.60;13.75;;;-0.40;99.90;;;;;;5024249;28;20260;-78
2022/12/14 02:21:51;;;;;;;20.35;16.02;;;-0.40;99.90;;;;;;5033933;28;20226;-80
2022/12/14 02:24:59;;;;;;;16.98;14.73;;;-0.40;99.90;;;;;;5033776;28;20252;-77
2022/12/14 02:27:56;;;;;;;21.05;14.20;;;-0.40;99.90;;;;;;5034536;28;20651;-79
2022/12/14 02:30:27;;;;;;;20.83;15.02;;;-0.40;99.90;;;;;;5026162;28;20687;-79
2022/12/14 02:33:22;;;;;;;19.13;15.00;;;-0.50;99.90;;;;;;5034016;28;20267;-78
2022/12/14 02:35:55;;;;;;;23.55;15.35;;;-0.50;99.90;;;;;;5026493;28;20745;-78
2022/12/14 02:38:37;;;;;;;21.55;15.23;;;-0.50;99.90;;;;;;5034963;28;20225;-79
2022/12/14 02:41:12;;;;;;;19.73;14.73;;;-0.50;99.90;;;;;;5033319;28;20225;-79
2022/12/14 02:43:49;;;;;;;21.30;15.50;;;-0.50;99.90;;;;;;5033003;28;20233;-78
2022/12/14 02:46:25;;;;;;;18.73;14.20;;;-0.50;99.90;;;;;;5032970;28;20312;-78
2022/12/14 02:48:59;;;;;;;19.15;15.05;;;-0.60;99.90;;;;;;5032948;28;20312;-77
2022/12/14 02:51:38;;;;;;;19.40;15.02;;;-0.60;99.90;;;;;;5038672;28;20721;-77
2022/12/14 02:54:11;;;;;;;21.08;15.30;;;-0.70;99.90;;;;;;5022662;28;20229;-79
2022/12/14 02:56:48;;;;;;;16.88;13.25;;;-0.70;99.90;;;;;;5041721;28;20236;-78
2022/12/14 02:59:17;;;;;;;24.05;15.50;;;-0.70;99.90;;;;;;5032231;28;20244;-77
2022/12/14 03:01:47;;;;;;;22.73;17.00;;;-0.80;99.90;;;;;;5032854;28;20225;-77
2022/12/14 03:04:15;;;;;;;19.25;14.30;;;-0.80;99.90;;;;;;5032450;28;20217;-79
2022/12/14 03:07:09;;;;;;;22.65;16.38;;;-0.80;99.90;;;;;;5034195;28;20699;-77
2022/12/14 03:09:36;;;;;;;25.65;14.23;;;-0.80;99.90;;;;;;5022120;28;20221;-79
2022/12/14 03:12:08;;;;;;;22.48;15.48;;;-0.80;99.90;;;;;;5037745;28;20276;-78
2022/12/14 03:14:39;;;;;;;19.30;14.27;;;-0.90;99.90;;;;;;5032310;28;20289;-79
2022/12/14 03:17:13;;;;;;;21.70;14.95;;;-0.90;99.90;;;;;;5033358;28;20291;-79
2022/12/14 03:19:44;;;;;;;17.67;14.70;;;-0.80;99.90;;;;;;5032701;28;20241;-79
2022/12/14 03:22:16;;;;;;;23.42;15.32;;;-0.80;99.90;;;;;;5030879;28;20235;-77
2022/12/14 03:24:49;;;;;;;20.35;15.55;;;-0.80;99.90;;;;;;5032983;28;20279;-79
2022/12/14 03:27:21;;;;;;;21.20;15.98;;;-0.90;99.90;;;;;;5022924;28;20217;-77
2022/12/14 03:29:54;;;;;;;21.38;14.80;;;-0.90;99.90;;;;;;5033092;28;20221;-78
2022/12/14 03:32:24;;;;;;;20.55;15.30;;;-0.90;99.90;;;;;;5036383;28;20229;-79
2022/12/14 03:34:57;;;;;;;18.67;14.18;;;-0.90;99.90;;;;;;5037339;28;20236;-79
2022/12/14 03:37:32;;;;;;;21.67;14.77;;;-0.90;99.90;;;;;;5039503;28;20237;-78
2022/12/14 03:39:59;;;;;;;16.13;13.65;;;-0.80;99.90;;;;;;5042043;28;20614;-79
2022/12/14 03:42:33;;;;;;;26.17;16.80;;;-0.80;99.90;;;;;;5042560;28;20233;-79
2022/12/14 03:45:05;;;;;;;22.50;15.82;;;-0.80;99.90;;;;;;5040912;28;20233;-77
2022/12/14 03:47:49;;;;;;;27.05;15.10;;;-0.80;99.90;;;;;;5038497;28;20304;-78
2022/12/14 03:50:21;;;;;;;22.55;14.30;;;-0.80;99.90;;;;;;5028467;28;20285;-77
2022/12/14 03:52:55;;;;;;;23.58;15.60;;;-0.80;99.90;;;;;;5033288;28;20221;-78
2022/12/14 03:55:27;;;;;;;21.75;16.00;;;-0.80;99.90;;;;;;5024692;28;20292;-76
2022/12/14 03:58:08;;;;;;;21.27;15.13;;;-0.80;99.90;;;;;;5039639;28;20241;-78
2022/12/14 04:00:45;;;;;;;19.60;14.20;;;-0.80;99.90;;;;;;5039431;28;20225;-77
2022/12/14 04:03:22;;;;;;;22.80;15.32;;;-0.80;99.90;;;;;;5036871;28;20225;-78
2022/12/14 04:05:55;;;;;;;25.13;15.57;;;-0.80;99.90;;;;;;5039170;28;21547;-77
2022/12/14 04:08:32;;;;;;;22.80;15.38;;;-0.80;99.90;;;;;;5041738;28;20225;-77
2022/12/14 04:19:29;;;;;;;21.25;15.02;;;-0.80;99.90;;;;;;5044571;28;20297;-77
2022/12/14 04:22:02;;;;;;;21.92;15.88;;;-0.90;99.90;;;;;;5035098;28;20257;-78
2022/12/14 04:27:24;;;;;;;21.80;14.77;;;-1.00;99.90;;;;;;5033029;28;20659;-79
2022/12/14 04:29:58;;;;;;;21.10;15.45;;;-1.00;99.90;;;;;;5031717;28;20233;-78
2022/12/14 04:32:29;;;;;;;21.75;15.70;;;-1.00;99.90;;;;;;5030691;28;20303;-78
2022/12/14 04:35:04;;;;;;;24.08;15.43;;;-1.00;99.90;;;;;;5030380;28;20226;-79
2022/12/14 04:37:34;;;;;;;21.17;16.75;;;-1.10;99.90;;;;;;5016717;28;20236;-78
2022/12/14 04:40:06;;;;;;;25.85;17.02;;;-1.10;99.90;;;;;;5030051;28;20245;-79
2022/12/14 04:42:36;;;;;;;25.80;16.77;;;-1.10;99.90;;;;;;5030353;28;20678;-78
2022/12/14 04:45:08;;;;;;;21.95;15.75;;;-1.10;99.90;;;;;;5021390;28;20245;-78
2022/12/14 04:47:43;;;;;;;23.92;18.00;;;-1.20;99.90;;;;;;5031375;28;20530;-79
2022/12/14 04:50:18;;;;;;;25.85;18.25;;;-1.20;99.90;;;;;;5032310;28;20221;-78
2022/12/14 04:52:49;;;;;;;22.90;15.02;;;-1.20;99.90;;;;;;5032201;28;20569;-79
2022/12/14 04:55:25;;;;;;;20.38;16.33;;;-1.20;99.90;;;;;;5024912;28;20242;-79
2022/12/14 04:57:56;;;;;;;21.80;15.93;;;-1.30;99.90;;;;;;5033015;28;20224;-79
2022/12/14 05:00:24;;;;;;;20.08;15.02;;;-1.30;99.90;;;;;;5035764;28;20229;-79
2022/12/14 05:03:07;;;;;;;21.15;14.27;;;-1.30;99.90;;;;;;5036187;28;20225;-78
2022/12/14 05:05:47;;;;;;;17.85;14.52;;;-1.30;99.90;;;;;;5037904;28;20245;-79
2022/12/14 05:08:21;;;;;;;18.52;13.75;;;-1.30;99.90;;;;;;5038534;28;20376;-77
2022/12/14 05:10:53;;;;;;;24.17;16.77;;;-1.30;99.90;;;;;;5036495;28;20546;-77
2022/12/14 05:13:30;;;;;;;22.00;16.15;;;-1.40;99.90;;;;;;5047859;28;20303;-78
2022/12/14 05:15:58;;;;;;;25.10;16.05;;;-1.40;99.90;;;;;;5055028;28;20277;-78
2022/12/14 05:18:27;;;;;;;27.23;16.90;;;-1.40;99.90;;;;;;5055149;28;20781;-78
2022/12/14 05:20:58;;;;;;;24.05;14.02;;;-1.50;99.90;;;;;;5053501;28;20241;-78
2022/12/14 05:23:25;;;;;;;20.05;15.15;;;-1.50;99.90;;;;;;5055588;28;20268;-79
2022/12/14 05:25:52;;;;;;;22.00;15.95;;;-1.50;99.90;;;;;;5055423;28;20741;-79
2022/12/14 05:28:19;;;;;;;22.17;17.00;;;-1.60;99.90;;;;;;5055499;28;20248;-77
2022/12/14 05:30:46;;;;;;;20.92;15.45;;;-1.60;99.90;;;;;;5054627;28;20224;-79
2022/12/14 05:33:18;;;;;;;22.95;16.40;;;-1.60;99.90;;;;;;5055425;28;20512;-78
2022/12/14 05:35:47;;;;;;;21.35;15.75;;;-1.60;99.90;;;;;;5054601;28;20244;-78
2022/12/14 05:38:18;;;;;;;26.13;18.38;;;-1.70;99.90;;;;;;5054858;28;20254;-77
2022/12/14 05:40:45;;;;;;;20.20;14.27;;;-1.60;99.90;;;;;;5054448;28;20286;-77
2022/12/14 05:43:12;;;;;;;25.13;16.33;;;-1.70;99.90;;;;;;5054555;28;20224;-77
2022/12/14 05:45:39;;;;;;;20.23;14.10;;;-1.70;99.90;;;;;;5054470;28;20244;-76
2022/12/14 05:48:08;;;;;;;21.27;14.60;;;-1.70;99.90;;;;;;5055103;28;20240;-76
2022/12/14 05:50:35;;;;;;;19.00;15.38;;;-1.70;99.90;;;;;;5054784;28;20255;-78
2022/12/14 05:53:02;;;;;;;22.30;14.68;;;-1.80;99.90;;;;;;5054401;28;20362;-78
2022/12/14 05:55:30;;;;;;;22.38;14.50;;;-1.80;99.90;;;;;;5046588;28;20228;-75
2022/12/14 05:57:57;;;;;;;20.00;15.30;;;-1.80;99.90;;;;;;5054977;28;20250;-79
2022/12/14 06:00:24;;;;;;;20.58;14.38;;;-1.80;99.90;;;;;;5054775;28;20264;-78
2022/12/14 06:02:51;;;;;;;26.05;17.08;;;-1.80;99.90;;;;;;5054682;28;20251;-77
2022/12/14 06:05:18;;;;;;;17.00;15.18;;;-1.70;99.90;;;;;;5053622;28;20626;-79
2022/12/14 06:07:46;;;;;;;20.38;14.90;;;-1.70;99.90;;;;;;5054639;28;20429;-78
2022/12/14 06:10:13;;;;;;;22.60;16.27;;;-1.70;99.90;;;;;;5055052;28;20224;-79
2022/12/14 06:12:42;;;;;;;19.00;13.43;;;-1.70;99.90;;;;;;5055195;28;20224;-77
2022/12/14 06:15:10;;;;;;;24.13;17.33;;;-1.60;99.90;;;;;;5054146;28;20220;-77
2022/12/14 06:17:37;;;;;;;18.25;14.77;;;-1.70;99.90;;;;;;5052183;28;20549;-77
2022/12/14 06:20:07;;;;;;;21.75;15.63;;;-1.70;99.90;;;;;;5052978;28;20229;-77
2022/12/14 06:22:34;;;;;;;18.48;14.77;;;-1.70;99.90;;;;;;5054209;28;20287;-77
2022/12/14 06:25:01;;;;;;;23.83;15.88;;;-1.70;99.90;;;;;;5053494;28;20244;-78
2022/12/14 06:27:28;;;;;;;17.65;12.88;;;-1.70;99.90;;;;;;5053628;28;20224;-78
2022/12/14 06:29:56;;;;;;;23.90;15.88;;;-1.80;99.90;;;;;;5052752;28;20315;-78
2022/12/14 06:32:25;;;;;;;17.75;14.25;;;-1.80;99.90;;;;;;5054131;28;20232;-78
2022/12/14 06:34:55;;;;;;;22.45;13.95;;;-1.80;99.90;;;;;;5044385;28;20221;-77
2022/12/14 06:37:22;;;;;;;20.50;15.93;;;-1.80;99.90;;;;;;5060951;28;20229;-76
2022/12/14 06:39:49;;;;;;;20.55;13.85;;;-1.80;99.90;;;;;;5054124;28;20631;-76
2022/12/14 06:42:19;;;;;;;25.38;16.58;;;-1.80;99.90;;;;;;5049828;28;20233;-77
2022/12/14 06:44:46;;;;;;;25.25;17.80;;;-1.80;99.90;;;;;;5053836;28;20229;-77
2022/12/14 06:47:14;;;;;;;21.80;15.77;;;-1.80;99.90;;;;;;5053533;28;20259;-77
2022/12/14 06:49:41;;;;;;;20.63;14.10;;;-1.70;99.90;;;;;;5053543;28;20244;-77
2022/12/14 06:52:11;;;;;;;19.40;14.75;;;-1.70;99.90;;;;;;5053295;28;20711;-77
2022/12/14 06:54:38;;;;;;;24.88;15.80;;;-1.60;99.90;;;;;;5053480;28;20316;-77
2022/12/14 06:57:05;;;;;;;20.58;15.23;;;-1.70;99.90;;;;;;5052640;28;20255;-77
2022/12/14 06:59:31;;;;;;;23.35;14.23;;;-1.70;99.90;;;;;;5053521;28;20233;-77
2022/12/14 07:01:59;;;;;;;26.90;15.77;;;-1.60;99.90;;;;;;5052190;28;20228;-80
2022/12/14 07:04:27;;;;;;;20.60;14.30;;;-1.70;99.90;;;;;;5053257;28;20239;-77
2022/12/14 07:06:54;;;;;;;23.55;15.68;;;-1.70;99.90;;;;;;5054032;28;20220;-79
2022/12/14 07:09:22;;;;;;;25.77;15.98;;;-1.70;99.90;;;;;;5052154;28;20232;-79
2022/12/14 07:11:51;;;;;;;25.45;15.02;;;-1.70;99.90;;;;;;5053544;28;20217;-79
2022/12/14 07:14:18;;;;;;;26.02;16.70;;;-1.70;99.90;;;;;;5053672;28;20236;-78
2022/12/14 07:16:46;;;;;;;24.02;16.88;;;-1.70;99.90;;;;;;5052347;28;20224;-78
2022/12/14 07:19:13;;;;;;;23.33;16.35;;;-1.70;99.90;;;;;;5053412;28;20229;-78
2022/12/14 07:21:41;;;;;;;21.30;16.65;;;-1.70;99.90;;;;;;5053352;28;20639;-78
2022/12/14 07:24:09;;;;;;;24.38;15.57;;;-1.70;99.90;;;;;;5054124;28;20519;-79
2022/12/14 07:26:36;;;;;;;19.63;14.77;;;-1.70;99.90;;;;;;5053131;28;20252;-80
2022/12/14 07:29:05;;;;;;;22.73;15.90;;;-1.70;99.90;;;;;;5053998;28;20221;-79
2022/12/14 07:31:36;;;;;;;20.85;15.23;;;-1.70;99.90;;;;;;5045705;28;20224;-79
2022/12/14 07:34:03;;;;;;;21.35;14.25;;;-1.70;99.90;;;;;;5053175;28;20216;-79
2022/12/14 07:36:31;;;;;;;22.30;14.60;;;-1.70;99.90;;;;;;5053856;28;20252;-79
2022/12/14 07:39:00;;;;;;;22.27;14.68;;;-1.60;99.90;;;;;;5054216;28;20228;-80
2022/12/14 07:41:31;;;;;;;19.23;15.70;;;-1.60;99.90;;;;;;5052936;28;20555;-79
2022/12/14 07:44:02;;;;;;;15.00;13.05;;;-1.60;99.90;;;;;;5051725;28;20220;-79
2022/12/14 07:46:30;;;;;;;20.55;13.77;;;-1.60;99.90;;;;;;5053207;28;20222;-79
2022/12/14 07:48:59;;;;;;;21.38;13.95;;;-1.60;99.90;;;;;;5052545;28;20566;-77
2022/12/14 07:51:28;;;;;;;23.80;15.10;;;-1.60;99.90;;;;;;5052147;28;20315;-78
2022/12/14 07:54:01;;;;;;;20.67;14.80;;;-1.50;99.90;;;;;;5052629;28;20722;-79
2022/12/14 07:56:33;;;;;;;22.17;14.45;;;-1.50;99.90;;;;;;5053570;28;20235;-78
2022/12/14 07:59:01;;;;;;;23.75;14.35;;;-1.50;99.90;;;;;;5058775;28;20228;-78
2022/12/14 08:01:30;;;;;;;17.63;12.93;;;-1.50;99.90;;;;;;5054668;28;20256;-78
2022/12/14 08:03:59;;;;;;;16.92;14.10;;;-1.40;99.90;;;;;;5053481;28;20232;-77
2022/12/14 08:06:29;;;;;;;21.40;14.18;;;-1.40;99.90;;;;;;5053063;28;20220;-78
2022/12/14 08:08:56;;;;;;;22.83;14.68;;;-1.50;99.90;;;;;;5053043;28;20224;-81
2022/12/14 08:11:24;;;;;;;22.33;15.30;;;-1.40;99.90;;;;;;5051074;28;20674;-77
2022/12/14 08:13:58;;;;;;;20.52;14.60;;;-1.50;99.90;;;;;;5052755;28;20251;-77
2022/12/14 08:16:26;;;;;;;20.35;14.15;;;-1.50;99.90;;;;;;5052907;28;20510;-77
2022/12/14 08:18:54;;;;;;;21.45;14.90;;;-1.50;99.90;;;;;;5053692;28;20623;-79
2022/12/14 08:21:22;;;;;;;19.80;15.10;;;-1.60;99.90;;;;;;5053298;28;20252;-79
2022/12/14 08:23:50;;;;;;;22.02;14.15;;;-1.60;99.90;;;;;;5053929;28;20560;-78
2022/12/14 08:26:19;;;;;;;19.98;14.80;;;-1.60;99.90;;;;;;5055303;28;20654;-80
2022/12/14 08:28:47;;;;;;;18.85;14.35;;;-1.60;99.90;;;;;;5055726;28;20501;-78
2022/12/14 08:31:19;;;;;;;22.42;15.10;;;-1.60;99.90;;;;;;5058874;28;20251;-80
2022/12/14 08:33:47;;;;;;;17.83;14.25;;;-1.60;99.90;;;;;;5059116;28;20285;-80
2022/12/14 08:36:16;;;;;;;24.63;17.10;;;-1.60;99.90;;;;;;5059090;28;20286;-80
2022/12/14 08:38:44;;;;;;;21.58;15.77;;;-1.50;99.90;;;;;;5059513;28;20259;-78
2022/12/14 08:41:15;;;;;;;21.00;15.00;;;-1.50;99.90;;;;;;5057848;28;20601;-79
2022/12/14 08:43:42;;;;;;;21.27;15.50;;;-1.40;99.90;;;;;;5057765;28;20235;-79
2022/12/14 08:46:11;;;;;;;18.13;14.75;;;-1.30;99.90;;;;;;5057740;28;20667;-79
2022/12/14 08:48:45;;;;;;;20.63;15.07;;;-1.30;99.90;;;;;;5041191;28;20715;-79
2022/12/14 08:51:18;;;;;;;24.65;14.88;;;-1.20;99.90;;;;;;5026945;28;20221;-77
2022/12/14 08:53:46;;;;;;;20.63;16.30;;;-1.20;99.90;;;;;;5029784;28;20673;-79
2022/12/14 08:56:16;;;;;;;22.25;15.52;;;-1.10;99.90;;;;;;5037120;28;20217;-78
2022/12/14 08:58:46;;;;;;;19.55;13.90;;;-1.10;99.90;;;;;;5037060;28;20316;-78
2022/12/14 09:01:15;;;;;;;18.85;14.35;;;-1.10;99.90;;;;;;5036461;28;20693;-78
2022/12/14 09:03:45;;;;;;;19.63;14.70;;;-1.00;99.90;;;;;;5023351;28;20816;-78
2022/12/14 09:06:15;;;;;;;19.33;13.93;;;-1.00;99.90;;;;;;5016569;28;20276;-79
2022/12/14 09:08:43;;;;;;;20.45;15.55;;;-1.00;99.90;;;;;;5016318;28;20226;-79
2022/12/14 09:11:12;;;;;;;20.33;15.40;;;-1.00;99.90;;;;;;5016813;28;20233;-79
2022/12/14 09:13:40;;;;;;;18.08;13.30;;;-0.90;99.90;;;;;;5016037;28;20226;-78
2022/12/14 09:16:10;;;;;;;25.98;14.73;;;-0.90;99.90;;;;;;5009904;28;20726;-79
2022/12/14 09:18:39;;;;;;;22.13;15.75;;;-0.90;99.90;;;;;;5014836;28;20237;-78
2022/12/14 09:21:09;;;;;;;25.30;15.63;;;-0.90;99.90;;;;;;5016122;28;20660;-76
2022/12/14 09:23:37;;;;;;;26.15;13.85;;;-0.90;99.90;;;;;;5014287;28;20234;-76
2022/12/14 09:26:07;;;;;;;17.08;14.57;;;-0.90;99.90;;;;;;5015169;28;20245;-77
2022/12/14 09:28:39;;;;;;;16.75;13.13;;;-0.80;99.90;;;;;;5015732;28;20234;-78
2022/12/14 09:31:10;;;;;;;18.02;14.70;;;-0.80;99.90;;;;;;5016003;28;20244;-79
2022/12/14 09:33:40;;;;;;;19.33;14.85;;;-0.80;99.90;;;;;;5015622;28;20554;-79
2022/12/14 09:36:12;;;;;;;21.52;15.40;;;-0.80;99.90;;;;;;5029569;28;20225;-79
2022/12/14 09:38:42;;;;;;;21.75;15.93;;;-0.80;99.90;;;;;;5035866;28;20256;-78
2022/12/14 09:41:27;;;;;;;23.98;15.35;;;-0.70;99.90;;;;;;5034847;28;20233;-79
2022/12/14 09:44:10;;;;;;;20.35;14.35;;;-0.60;99.90;;;;;;5037685;28;20217;-79
2022/12/14 09:46:46;;;;;;;26.80;16.10;;;-0.60;99.90;;;;;;5036511;28;20227;-79
2022/12/14 09:49:25;;;;;;;22.98;14.35;;;-0.60;99.90;;;;;;5037653;28;20271;-80
2022/12/14 09:51:55;;;;;;;20.95;14.80;;;-0.60;99.90;;;;;;5037298;28;20244;-79
2022/12/14 09:54:26;;;;;;;22.35;15.90;;;-0.50;99.90;;;;;;5038553;28;20221;-77
2022/12/14 09:56:57;;;;;;;20.50;14.10;;;-0.50;99.90;;;;;;5035569;28;20259;-78
2022/12/14 09:59:28;;;;;;;22.27;16.23;;;-0.50;99.90;;;;;;5037094;28;20226;-79
2022/12/14 10:02:00;;;;;;;28.27;16.45;;;-0.50;99.90;;;;;;5039585;28;20283;-79
2022/12/14 10:04:40;;;;;;;21.67;15.02;;;-0.50;99.90;;;;;;5042678;28;20247;-77
2022/12/14 10:07:16;;;;;;;19.27;14.38;;;-0.50;99.90;;;;;;5040617;28;20275;-79
2022/12/14 10:09:51;;;;;;;17.15;12.52;;;-0.50;99.90;;;;;;5044162;28;20229;-79
2022/12/14 10:12:31;;;;;;;21.17;15.18;;;-0.30;99.90;;;;;;5049512;28;20302;-79
2022/12/14 10:15:10;;;;;;;19.35;14.48;;;-0.30;99.90;;;;;;5040513;28;20229;-77
2022/12/14 10:18:05;;;;;;;17.02;13.73;;;-0.20;99.90;;;;;;5044315;28;20228;-78
2022/12/14 10:20:37;;;;;;;22.10;15.20;;;-0.20;99.90;;;;;;5041932;28;20237;-79
2022/12/14 10:23:11;;;;;;;19.50;14.30;;;-0.20;99.90;;;;;;5041351;28;20225;-78
2022/12/14 10:25:39;;;;;;;18.60;15.27;;;-0.20;99.90;;;;;;5040431;28;20225;-79
2022/12/14 10:28:14;;;;;;;19.25;13.50;;;-0.20;99.90;;;;;;5042285;28;20623;-79
2022/12/14 10:30:52;;;;;;;20.80;15.07;;;-0.10;99.90;;;;;;5035886;28;20308;-78
2022/12/14 10:33:24;;;;;;;20.08;15.15;;;0.00;99.90;;;;;;5039273;28;20261;-77
2022/12/14 10:35:54;;;;;;;18.65;14.45;;;0.00;99.90;;;;;;5038365;28;20295;-77
2022/12/14 10:38:28;;;;;;;21.30;14.35;;;0.10;99.90;;;;;;5037323;28;20222;-79
2022/12/14 10:41:04;;;;;;;20.48;14.05;;;0.10;99.90;;;;;;5037600;28;20240;-79
2022/12/14 10:43:43;;;;;;;22.23;13.70;;;0.10;99.90;;;;;;5036098;28;20254;-76
2022/12/14 10:46:27;;;;;;;19.63;14.40;;;0.00;99.90;;;;;;5037170;28;20221;-80
2022/12/14 10:48:59;;;;;;;18.85;14.82;;;0.00;99.90;;;;;;5036071;28;20249;-78
2022/12/14 10:51:35;;;;;;;20.90;14.65;;;0.10;99.90;;;;;;5034382;28;20245;-78
2022/12/14 10:54:22;;;;;;;21.35;15.38;;;0.00;99.90;;;;;;5035462;28;20296;-80
2022/12/14 10:56:50;;;;;;;18.10;14.38;;;0.10;99.90;;;;;;5036309;28;20271;-79
2022/12/14 10:59:35;;;;;;;19.88;14.20;;;0.10;99.90;;;;;;5033626;28;20708;-78
2022/12/14 11:09:17;;;;;;;19.23;14.65;;;0.40;99.90;;;;;;4878754;29;20771;-78
2022/12/14 11:12:04;;;;;;;20.77;14.43;;;0.40;99.90;;;;;;4898913;29;20234;-79
2022/12/14 11:15:08;;;;;;;20.70;14.77;;;0.40;99.90;;;;;;4894391;29;20228;-78
2022/12/14 11:18:11;;;;;;;;;;;;;;;;;;;;;
2022/12/14 11:34:12;;;;;;;;;;;;;;;;;;;;;
2022/12/14 11:37:00;;;;;;;15.48;12.85;;;0.80;99.90;;;;;;4928715;28;20599;-79
2022/12/14 11:40:06;;;;;;;20.27;13.93;;;0.80;99.90;;;;;;4942481;28;20731;-77
2022/12/14 11:43:03;;;;;;;20.45;14.60;;;0.90;99.90;;;;;;4945080;28;20223;-77
2022/12/14 11:49:25;;;;;;;18.80;13.82;;;1.00;99.90;;;;;;4937346;28;20603;-79
2022/12/14 11:58:36;;;;;;;18.52;14.60;;;0.90;99.90;;;;;;4966015;28;20223;-80
2022/12/14 12:01:20;;;;;;;20.30;15.00;;;0.90;99.90;;;;;;4982519;28;20222;-79
2022/12/14 12:03:55;;;;;;;16.95;13.32;;;0.80;99.90;;;;;;5014629;28;20216;-79
2022/12/14 12:10:13;;;;;;;20.88;12.80;;;0.80;99.90;;;;;;5039148;28;20240;-78
2022/12/14 12:13:21;;;;;;;19.52;13.73;;;0.90;99.90;;;;;;5010545;28;20265;-78
2022/12/14 12:16:14;;;;;;;20.98;13.93;;;0.90;99.90;;;;;;5008278;28;20228;-78
2022/12/14 12:18:46;;;;;;;16.88;12.70;;;0.90;99.90;;;;;;5037423;28;20217;-78
2022/12/14 12:21:17;;;;;;;17.08;14.30;;;0.90;99.90;;;;;;5037235;28;20225;-77
2022/12/14 12:23:53;;;;;;;18.15;14.32;;;0.80;99.90;;;;;;5036615;28;20228;-78
2022/12/14 12:26:30;;;;;;;23.30;15.95;;;0.80;99.90;;;;;;5037306;28;20229;-78
2022/12/14 12:29:26;;;;;;;19.83;15.23;;;0.70;99.90;;;;;;5027431;28;20228;-77
2022/12/14 12:32:07;;;;;;;20.83;15.18;;;0.70;99.90;;;;;;5035651;28;20294;-77
2022/12/14 12:37:58;;;;;;;19.63;14.25;;;0.70;99.90;;;;;;4999392;28;20254;-77
2022/12/14 12:44:11;;;;;;;23.48;13.93;;;0.60;99.90;;;;;;5033084;28;20236;-76
2022/12/14 12:46:56;;;;;;;17.70;14.25;;;0.70;99.90;;;;;;5016957;28;20220;-78
2022/12/14 12:50:03;;;;;;;14.50;12.90;;;0.70;99.90;;;;;;5026858;28;20236;-79
2022/12/14 12:53:37;;;;;;;;;;;;;;;;;;;;;
2022/12/14 12:56:40;;;;;;;17.13;13.77;;;0.70;99.90;;;;;;5029115;28;20585;-80
2022/12/14 13:08:35;;;;;;;16.15;11.82;;;0.90;99.90;;;;;;4954643;28;20228;-79
2022/12/14 13:11:46;;;;;;;20.85;14.50;;;0.90;99.90;;;;;;4926716;28;20220;-79
2022/12/14 13:27:43;;;;;;;18.40;12.70;;;0.80;99.90;;;;;;4978376;28;20294;-79
2022/12/14 13:37:33;;;;;;;;;;;;;;;;;;;;;
2022/12/14 14:12:47;;;;;;;16.15;11.90;;;1.20;99.90;;;;;;5022719;28;20222;-76
2022/12/14 14:15:38;;;;;;;18.58;13.35;;;1.20;99.90;;;;;;5054286;28;20739;-77
2022/12/14 14:18:27;;;;;;;18.23;12.95;;;0.90;99.90;;;;;;5054592;28;20220;-77
2022/12/14 14:21:39;;;;;;;18.83;13.45;;;0.80;99.90;;;;;;5043748;28;20575;-77
2022/12/14 14:25:08;;;;;;;18.60;13.52;;;0.70;99.90;;;;;;5041709;28;20315;-77
2022/12/14 14:27:58;;;;;;;19.95;14.98;;;0.70;99.90;;;;;;5041696;28;20617;-78
2022/12/14 14:30:40;;;;;;;20.98;13.90;;;0.60;99.90;;;;;;5042744;28;20236;-78
2022/12/14 14:37:06;;;;;;;19.55;13.43;;;0.30;99.90;;;;;;5041345;28;20232;-77
2022/12/14 14:47:01;;;;;;;21.45;12.70;;;0.40;99.90;;;;;;5035683;28;20733;-77
2022/12/14 14:53:32;;;;;;;;;;;;;;;;;;;;;
2022/12/14 14:56:52;;;;;;;18.20;13.60;;;0.40;99.90;;;;;;5038998;28;20221;-77
2022/12/14 15:00:32;;;;;;;16.30;13.25;;;0.40;99.90;;;;;;5008483;28;20226;-77
2022/12/14 15:07:21;;;;;;;22.10;14.52;;;0.30;99.90;;;;;;5027263;28;20224;-79
2022/12/14 15:10:08;;;;;;;24.45;16.20;;;0.40;99.90;;;;;;5038885;28;20230;-77
2022/12/14 15:12:43;;;;;;;20.02;13.88;;;0.40;99.90;;;;;;5033435;28;20307;-77
2022/12/14 15:18:58;;;;;;;;;;;;;;;;;;;;;
2022/12/14 15:22:17;;;;;;;20.95;15.40;;;0.40;99.70;;;;;;5044456;28;20495;-79
2022/12/14 15:24:59;;;;;;;27.33;16.73;;;0.40;99.70;;;;;;5024537;28;20657;-79
2022/12/14 15:44:44;;;;;;;;;;;;;;;;;;;;;
2022/12/14 15:47:49;;;;;;;23.60;17.33;;;0.30;99.80;;;;;;5047169;28;20676;-78